createdAt,value
2023-04-27T00:00:11.889Z,67.16
2023-04-27T00:02:40.660Z,66.62
2023-04-27T00:05:11.752Z,66.99
2023-04-27T00:07:42.100Z,66.60
2023-04-27T00:10:12.239Z,67.48
2023-04-27T00:12:42.043Z,67.33
2023-04-27T00:15:12.322Z,67.94
2023-04-27T00:17:42.300Z,68.93
2023-04-27T00:20:13.001Z,69.53
2023-04-27T00:22:43.097Z,69.67
2023-04-27T00:25:11.963Z,68.38
2023-04-27T00:27:40.882Z,67.98
2023-04-27T00:30:11.309Z,67.84
2023-04-27T00:32:40.031Z,67.42
2023-04-27T00:35:10.164Z,66.78
2023-04-27T00:37:38.951Z,66.86
2023-04-27T00:40:11.357Z,67.11
2023-04-27T00:42:40.106Z,67.14
2023-04-27T00:45:10.833Z,67.23
2023-04-27T00:47:39.764Z,67.92
2023-04-27T00:50:10.654Z,67.45
2023-04-27T00:52:40.286Z,67.57
2023-04-27T00:55:12.092Z,66.96
2023-04-27T00:57:42.182Z,67.74
2023-04-27T01:00:13.874Z,67.41
2023-04-27T01:02:44.173Z,68.29
2023-04-27T01:05:13.388Z,67.50
2023-04-27T01:07:42.856Z,68.17
2023-04-27T01:10:13.063Z,68.52
2023-04-27T01:12:41.760Z,68.69
2023-04-27T01:15:12.700Z,68.91
2023-04-27T01:17:41.806Z,69.39
2023-04-27T01:20:11.878Z,69.45
2023-04-27T01:22:40.859Z,69.36
2023-04-27T01:25:12.781Z,69.00
2023-04-27T01:27:41.448Z,68.19
2023-04-27T01:30:10.528Z,68.17
2023-04-27T01:32:39.616Z,68.68
2023-04-27T01:35:09.032Z,69.57
2023-04-27T01:37:38.101Z,69.88
2023-04-27T01:40:09.712Z,69.66
2023-04-27T01:42:39.886Z,69.83
2023-04-27T01:45:12.773Z,69.96
2023-04-27T01:47:42.115Z,70.68
2023-04-27T01:50:11.852Z,70.10
2023-04-27T01:52:41.323Z,69.77
2023-04-27T01:55:11.262Z,69.65
2023-04-27T01:57:41.417Z,69.23
2023-04-27T02:00:11.825Z,69.21
2023-04-27T02:02:51.173Z,69.03
2023-04-27T02:05:20.420Z,69.25
2023-04-27T02:07:51.374Z,69.83
2023-04-27T02:10:22.246Z,69.41
2023-04-27T02:12:52.488Z,68.70
2023-04-27T02:15:21.906Z,69.72
2023-04-27T02:17:50.812Z,69.49
2023-04-27T02:20:19.882Z,69.90
2023-04-27T02:22:48.686Z,70.35
2023-04-27T02:25:17.496Z,70.65
2023-04-27T02:27:46.668Z,71.32
2023-04-27T02:30:17.487Z,70.46
2023-04-27T02:32:47.420Z,70.01
2023-04-27T02:35:16.252Z,71.07
2023-04-27T02:37:44.981Z,70.62
2023-04-27T02:40:17.045Z,71.04
2023-04-27T02:42:45.852Z,70.56
2023-04-27T02:45:16.034Z,71.07
2023-04-27T02:47:45.768Z,72.00
2023-04-27T02:50:15.724Z,71.07
2023-04-27T02:52:44.376Z,70.82
2023-04-27T02:55:13.303Z,70.96
2023-04-27T02:57:42.310Z,71.39
2023-04-27T03:00:12.581Z,70.71
2023-04-27T03:02:42.973Z,71.59
2023-04-27T03:05:12.993Z,72.21
2023-04-27T03:07:42.088Z,71.84
2023-04-27T03:10:11.517Z,72.10
2023-04-27T03:12:40.281Z,71.72
2023-04-27T03:15:10.675Z,71.30
2023-04-27T03:17:39.370Z,71.41
2023-04-27T03:20:12.350Z,72.28
2023-04-27T03:22:41.010Z,71.34
2023-04-27T03:25:10.371Z,71.02
2023-04-27T03:27:40.778Z,72.10
2023-04-27T03:30:11.584Z,71.28
2023-04-27T03:32:40.512Z,70.71
2023-04-27T03:35:11.286Z,70.87
2023-04-27T03:37:40.477Z,70.48
2023-04-27T03:40:11.243Z,70.62
2023-04-27T03:42:40.043Z,71.23
2023-04-27T03:45:12.127Z,71.57
2023-04-27T03:47:41.262Z,71.50
2023-04-27T03:50:12.422Z,71.11
2023-04-27T03:52:41.449Z,72.10
2023-04-27T03:55:11.041Z,71.91
2023-04-27T03:57:41.648Z,71.97
2023-04-27T04:00:13.056Z,71.71
2023-04-27T04:02:42.340Z,71.58
2023-04-27T04:05:15.047Z,71.78
2023-04-27T04:07:44.001Z,71.20
2023-04-27T04:10:13.948Z,72.08
2023-04-27T04:12:43.886Z,71.74
2023-04-27T04:15:14.554Z,72.04
2023-04-27T04:17:44.540Z,72.10
2023-04-27T04:20:15.407Z,72.35
2023-04-27T04:22:44.663Z,71.96
2023-04-27T04:25:15.237Z,72.67
2023-04-27T04:27:44.825Z,72.20
2023-04-27T04:30:14.964Z,72.72
2023-04-27T04:32:45.137Z,72.55
2023-04-27T04:35:17.926Z,71.78
2023-04-27T04:37:46.876Z,71.26
2023-04-27T04:40:16.716Z,71.37
2023-04-27T04:42:47.506Z,71.35
2023-04-27T04:45:16.571Z,71.08
2023-04-27T04:47:45.699Z,71.30
2023-04-27T04:50:15.851Z,71.81
2023-04-27T04:52:44.787Z,72.52
2023-04-27T04:55:14.091Z,72.12
2023-04-27T04:57:43.097Z,71.80
2023-04-27T05:00:14.037Z,71.87
2023-04-27T05:02:43.319Z,71.80
2023-04-27T05:05:12.123Z,71.76
2023-04-27T05:07:42.199Z,72.10
2023-04-27T05:10:11.315Z,71.96
2023-04-27T05:13:07.178Z,72.30
2023-04-27T05:15:35.977Z,72.02
2023-04-27T05:18:04.962Z,72.13
2023-04-27T05:20:36.869Z,72.38
2023-04-27T05:23:06.945Z,72.07
2023-04-27T05:25:41.551Z,72.65
2023-04-27T05:28:10.870Z,73.39
2023-04-27T05:30:39.636Z,73.21
2023-04-27T05:33:08.468Z,73.69
2023-04-27T05:35:37.374Z,74.09
2023-04-27T05:38:07.394Z,73.37
2023-04-27T05:40:36.400Z,73.54
2023-04-27T05:43:05.674Z,73.30
2023-04-27T05:45:34.586Z,74.08
2023-04-27T05:48:03.367Z,74.63
2023-04-27T05:50:32.268Z,74.39
2023-04-27T05:53:01.108Z,74.13
2023-04-27T05:55:31.366Z,73.58
2023-04-27T05:58:08.585Z,73.85
2023-04-27T06:00:38.509Z,73.20
2023-04-27T06:03:07.434Z,72.80
2023-04-27T06:05:36.525Z,72.54
2023-04-27T06:08:05.632Z,72.29
2023-04-27T06:10:35.871Z,72.63
2023-04-27T06:13:04.601Z,72.21
2023-04-27T06:15:33.281Z,72.29
2023-04-27T06:18:02.110Z,72.43
2023-04-27T06:20:30.810Z,70.98
2023-04-27T06:23:00.510Z,71.17
2023-04-27T06:25:29.492Z,71.01
2023-04-27T06:27:59.933Z,71.05
2023-04-27T06:30:28.693Z,70.73
2023-04-27T06:32:57.441Z,71.20
2023-04-27T06:35:26.450Z,70.70
2023-04-27T06:37:58.868Z,70.54
2023-04-27T06:40:28.064Z,69.72
2023-04-27T06:42:58.295Z,69.22
2023-04-27T06:45:27.194Z,68.29
2023-04-27T06:47:56.258Z,68.62
2023-04-27T06:50:25.006Z,66.83
2023-04-27T06:52:53.638Z,65.18
2023-04-27T06:55:22.532Z,63.30
2023-04-27T06:57:51.210Z,61.71
2023-04-27T07:00:21.976Z,62.29
2023-04-27T07:02:51.484Z,60.10
2023-04-27T07:05:20.473Z,58.95
2023-04-27T07:07:49.262Z,58.99
2023-04-27T07:10:17.947Z,57.29
2023-04-27T07:12:46.664Z,58.61
2023-04-27T07:15:15.439Z,58.21
2023-04-27T07:17:46.542Z,58.59
2023-04-27T07:20:16.845Z,58.66
2023-04-27T07:22:45.676Z,56.61
2023-04-27T07:25:14.376Z,56.61
2023-04-27T07:27:43.209Z,54.87
2023-04-27T07:30:14.315Z,55.03
2023-04-27T07:32:44.990Z,55.45
2023-04-27T07:35:14.027Z,55.44
2023-04-27T07:37:44.218Z,55.68
2023-04-27T07:40:16.770Z,53.39
2023-04-27T07:42:46.468Z,53.22
2023-04-27T07:45:15.440Z,55.33
2023-04-27T07:47:46.457Z,51.04
2023-04-27T07:50:18.685Z,52.41
2023-04-27T07:52:47.320Z,53.41
2023-04-27T07:55:16.000Z,51.30
2023-04-27T07:57:44.699Z,51.82
2023-04-27T08:00:14.709Z,50.93
2023-04-27T08:02:45.125Z,51.20
2023-04-27T08:05:14.421Z,50.05
2023-04-27T08:07:44.762Z,51.19
2023-04-27T08:10:13.999Z,49.48
2023-04-27T08:12:42.685Z,47.10
2023-04-27T08:15:13.187Z,48.43
2023-04-27T08:17:42.144Z,47.19
2023-04-27T08:20:13.797Z,45.90
2023-04-27T08:22:43.914Z,46.42
2023-04-27T08:25:12.728Z,47.57
2023-04-27T08:27:41.958Z,46.62
2023-04-27T08:30:11.929Z,42.94
2023-04-27T08:32:41.286Z,46.71
2023-04-27T08:35:11.897Z,45.88
2023-04-27T08:37:40.582Z,45.81
2023-04-27T08:40:11.237Z,47.11
2023-04-27T08:42:54.422Z,45.01
2023-04-27T08:45:25.203Z,43.75
2023-04-27T08:47:54.895Z,45.84
2023-04-27T08:50:26.004Z,44.24
2023-04-27T08:52:54.879Z,43.41
2023-04-27T08:55:24.184Z,42.88
2023-04-27T08:57:57.642Z,41.24
2023-04-27T09:00:28.271Z,42.73
2023-04-27T09:02:57.152Z,42.80
2023-04-27T09:05:27.678Z,43.39
2023-04-27T09:08:01.497Z,42.72
2023-04-27T09:10:30.438Z,43.93
2023-04-27T09:13:01.973Z,42.84
2023-04-27T09:15:30.878Z,42.90
2023-04-27T09:18:00.162Z,41.45
2023-04-27T09:20:30.336Z,43.82
2023-04-27T09:22:59.091Z,43.37
2023-04-27T09:25:30.210Z,42.80
2023-04-27T09:28:01.037Z,43.64
2023-04-27T09:30:31.077Z,42.99
2023-04-27T09:33:02.283Z,42.86
2023-04-27T09:35:34.557Z,43.58
2023-04-27T09:38:03.239Z,43.00
2023-04-27T09:40:32.136Z,42.75
2023-04-27T09:43:03.238Z,41.52
2023-04-27T09:45:34.813Z,42.24
2023-04-27T09:48:05.585Z,46.09
2023-04-27T09:50:39.424Z,41.57
2023-04-27T09:53:11.461Z,41.80
2023-04-27T09:55:49.997Z,40.50
2023-04-27T09:58:55.564Z,41.16
2023-04-27T10:01:37.699Z,42.05
2023-04-27T10:04:29.259Z,40.00
2023-04-27T10:07:04.962Z,39.24
2023-04-27T10:09:39.156Z,40.88
2023-04-27T10:12:20.246Z,41.75
2023-04-27T10:14:54.852Z,39.41
2023-04-27T10:17:32.614Z,41.13
2023-04-27T10:20:04.195Z,38.72
2023-04-27T10:22:56.247Z,41.30
2023-04-27T10:25:29.511Z,43.68
2023-04-27T10:28:01.369Z,42.85
2023-04-27T10:30:34.875Z,40.21
2023-04-27T10:33:09.541Z,40.16
2023-04-27T10:35:43.520Z,41.21
2023-04-27T10:38:19.156Z,39.41
2023-04-27T10:40:57.289Z,43.52
2023-04-27T10:43:30.066Z,42.26
2023-04-27T10:46:10.867Z,39.78
2023-04-27T10:48:40.774Z,38.45
2023-04-27T10:51:09.743Z,38.49
2023-04-27T10:53:39.968Z,40.17
2023-04-27T10:56:09.238Z,39.60
2023-04-27T11:01:11.045Z,38.48
2023-04-27T11:03:46.957Z,40.36
2023-04-27T11:06:15.800Z,37.51
2023-04-27T11:08:47.326Z,37.35
2023-04-27T11:11:18.600Z,38.23
2023-04-27T11:13:52.987Z,39.44
2023-04-27T11:16:21.771Z,37.35
2023-04-27T11:18:50.769Z,38.15
2023-04-27T11:21:22.329Z,35.48
2023-04-27T11:23:52.711Z,36.62
2023-04-27T11:26:34.317Z,34.46
2023-04-27T11:29:17.862Z,36.98
2023-04-27T11:31:51.271Z,38.98
2023-04-27T11:34:24.438Z,38.45
2023-04-27T11:39:39.007Z,35.92
2023-04-27T11:42:19.493Z,33.77
2023-04-27T11:44:55.688Z,34.71
2023-04-27T11:47:27.709Z,35.74
2023-04-27T11:50:00.947Z,35.80
2023-04-27T11:52:32.009Z,36.15
2023-04-27T11:55:04.717Z,36.45
2023-04-27T11:57:36.693Z,36.05
2023-04-27T12:00:11.290Z,31.67
2023-04-27T12:02:45.613Z,31.77
2023-04-27T12:05:28.344Z,31.63
2023-04-27T12:07:58.469Z,32.59
2023-04-27T12:10:28.689Z,32.51
2023-04-27T12:12:57.322Z,32.67
2023-04-27T12:15:26.181Z,32.49
2023-04-27T12:17:54.834Z,33.57
2023-04-27T12:20:24.067Z,34.09
2023-04-27T12:22:52.715Z,34.16
2023-04-27T12:25:21.544Z,33.74
2023-04-27T12:27:54.353Z,33.65
2023-04-27T12:30:25.126Z,35.68
2023-04-27T12:32:54.659Z,32.97
2023-04-27T12:35:24.609Z,31.95
2023-04-27T12:37:53.341Z,32.72
2023-04-27T12:40:23.333Z,33.47
2023-04-27T12:42:53.427Z,31.51
2023-04-27T12:45:22.356Z,31.73
2023-04-27T12:48:02.826Z,29.73
2023-04-27T12:50:33.550Z,30.24
2023-04-27T12:53:02.314Z,29.47
2023-04-27T12:55:33.560Z,29.24
2023-04-27T12:58:05.307Z,26.19
2023-04-27T13:00:34.387Z,26.17
2023-04-27T13:03:03.613Z,26.43
2023-04-27T13:05:32.585Z,27.77
2023-04-27T13:08:02.364Z,26.04
2023-04-27T13:10:32.290Z,26.44
2023-04-27T13:13:01.346Z,26.20
2023-04-27T13:15:32.014Z,26.73
2023-04-27T13:18:02.136Z,28.06
2023-04-27T13:20:32.104Z,28.19
2023-04-27T13:23:01.171Z,26.61
2023-04-27T13:25:31.028Z,28.35
2023-04-27T13:28:01.140Z,26.00
2023-04-27T13:30:33.598Z,25.27
2023-04-27T13:33:18.343Z,25.73
2023-04-27T13:35:50.914Z,22.97
2023-04-27T13:38:20.410Z,23.16
2023-04-27T13:40:49.530Z,23.51
2023-04-27T13:43:21.421Z,22.38
2023-04-27T13:45:56.462Z,22.99
2023-04-27T13:48:26.569Z,23.11
2023-04-27T13:50:57.945Z,24.09
2023-04-27T13:53:29.940Z,25.66
2023-04-27T13:56:01.193Z,26.12
2023-04-27T13:58:30.246Z,25.84
2023-04-27T14:01:01.172Z,25.43
2023-04-27T14:03:30.884Z,25.02
2023-04-27T14:05:59.753Z,23.23
2023-04-27T14:08:29.065Z,23.94
2023-04-27T14:10:57.989Z,23.42
2023-04-27T14:13:27.013Z,23.19
2023-04-27T14:15:58.046Z,24.26
2023-04-27T14:18:32.542Z,23.84
2023-04-27T14:23:49.990Z,25.85
2023-04-27T14:26:19.265Z,25.51
2023-04-27T14:28:47.926Z,23.13
2023-04-27T14:31:17.180Z,22.48
2023-04-27T14:33:48.341Z,22.00
2023-04-27T14:36:19.191Z,22.38
2023-04-27T14:38:49.039Z,22.54
2023-04-27T14:41:17.783Z,21.42
2023-04-27T14:43:47.118Z,22.91
2023-04-27T14:46:20.688Z,22.45
2023-04-27T14:48:51.508Z,23.31
2023-04-27T14:51:20.538Z,23.41
2023-04-27T14:53:49.188Z,22.85
2023-04-27T14:56:18.030Z,24.28
2023-04-27T14:58:46.863Z,23.13
2023-04-27T15:01:16.783Z,24.83
2023-04-27T15:03:46.425Z,24.11
2023-04-27T15:06:19.915Z,24.80
2023-04-27T15:08:51.007Z,25.06
2023-04-27T15:11:20.820Z,25.49
2023-04-27T15:13:50.102Z,26.23
2023-04-27T15:16:20.311Z,25.68
2023-04-27T15:18:49.373Z,24.61
2023-04-27T15:21:19.671Z,23.52
2023-04-27T15:23:48.668Z,23.82
2023-04-27T15:26:18.362Z,23.91
2023-04-27T15:28:47.423Z,25.21
2023-04-27T15:31:16.339Z,24.00
2023-04-27T15:33:45.433Z,24.45
2023-04-27T15:36:14.574Z,24.29
2023-04-27T15:38:45.011Z,25.23
2023-04-27T15:41:14.093Z,26.35
2023-04-27T15:43:42.884Z,26.33
2023-04-27T15:46:11.963Z,26.71
2023-04-27T15:48:40.792Z,27.65
2023-04-27T15:51:10.552Z,28.11
2023-04-27T15:53:39.617Z,29.12
2023-04-27T15:56:10.019Z,29.84
2023-04-27T15:58:39.840Z,29.94
2023-04-27T16:01:08.632Z,29.81
2023-04-27T16:03:38.032Z,30.26
2023-04-27T16:06:07.656Z,31.09
2023-04-27T16:08:36.593Z,30.18
2023-04-27T16:11:05.508Z,31.54
2023-04-27T16:13:36.722Z,31.34
2023-04-27T16:16:05.825Z,31.57
2023-04-27T16:18:34.965Z,30.68
2023-04-27T16:21:04.139Z,31.91
2023-04-27T16:23:33.317Z,32.14
2023-04-27T16:26:03.616Z,33.46
2023-04-27T16:28:32.890Z,32.55
2023-04-27T16:31:03.962Z,32.07
2023-04-27T16:33:32.819Z,32.72
2023-04-27T16:36:01.680Z,33.12
2023-04-27T16:38:30.270Z,33.23
2023-04-27T16:41:01.066Z,35.04
2023-04-27T16:43:31.272Z,35.17
2023-04-27T16:45:59.952Z,34.84
2023-04-27T16:48:31.658Z,35.22
2023-04-27T16:51:01.067Z,34.26
2023-04-27T16:53:30.048Z,35.01
2023-04-27T16:56:02.193Z,34.14
2023-04-27T16:58:34.643Z,33.97
2023-04-27T17:01:03.447Z,34.25
2023-04-27T17:03:36.080Z,35.20
2023-04-27T17:06:05.472Z,35.06
2023-04-27T17:08:34.328Z,34.63
2023-04-27T17:11:03.165Z,35.10
2023-04-27T17:13:33.043Z,35.08
2023-04-27T17:16:03.599Z,35.35
2023-04-27T17:18:34.261Z,34.93
2023-04-27T17:21:03.625Z,36.96
2023-04-27T17:23:33.750Z,37.66
2023-04-27T17:26:02.999Z,37.58
2023-04-27T17:28:31.963Z,38.16
2023-04-27T17:31:00.633Z,37.51
2023-04-27T17:33:29.234Z,38.32
2023-04-27T17:35:59.271Z,37.06
2023-04-27T17:38:28.786Z,37.09
2023-04-27T17:40:57.585Z,39.10
2023-04-27T17:43:26.267Z,38.11
2023-04-27T17:45:54.986Z,39.07
2023-04-27T17:48:23.728Z,40.15
2023-04-27T17:50:52.764Z,40.06
2023-04-27T17:53:23.035Z,40.32
2023-04-27T17:55:52.799Z,41.47
2023-04-27T17:58:21.564Z,43.35
2023-04-27T18:00:50.461Z,44.06
2023-04-27T18:03:19.329Z,45.08
2023-04-27T18:05:48.126Z,45.44
2023-04-27T18:08:16.818Z,45.04
2023-04-27T18:10:47.043Z,44.81
2023-04-27T18:13:15.727Z,44.78
2023-04-27T18:15:44.355Z,45.55
2023-04-27T18:18:16.835Z,46.22
2023-04-27T18:20:47.762Z,47.77
2023-04-27T18:23:16.781Z,48.63
2023-04-27T18:25:47.134Z,48.71
2023-04-27T18:28:21.531Z,48.84
2023-04-27T18:30:52.535Z,49.99
2023-04-27T18:33:24.975Z,50.79
2023-04-27T18:35:54.899Z,49.87
2023-04-27T18:38:25.001Z,49.44
2023-04-27T18:40:55.614Z,49.92
2023-04-27T18:43:25.657Z,51.03
2023-04-27T18:45:55.266Z,52.42
2023-04-27T18:48:26.954Z,52.88
2023-04-27T18:50:56.596Z,53.32
2023-04-27T18:53:25.957Z,53.79
2023-04-27T18:55:56.844Z,54.24
2023-04-27T18:58:26.211Z,54.61
2023-04-27T19:00:59.603Z,54.89
2023-04-27T19:03:29.649Z,55.00
2023-04-27T19:05:59.326Z,53.40
2023-04-27T19:08:29.980Z,52.75
2023-04-27T19:11:16.880Z,54.11
2023-04-27T19:13:45.853Z,55.34
2023-04-27T19:16:22.264Z,56.10
2023-04-27T19:18:52.850Z,55.96
2023-04-27T19:21:21.665Z,54.28
2023-04-27T19:23:50.845Z,53.65
2023-04-27T19:26:21.892Z,55.03
2023-04-27T19:28:50.741Z,56.17
2023-04-27T19:31:19.666Z,57.04
2023-04-27T19:36:24.753Z,56.31
2023-04-27T19:38:55.457Z,55.18
2023-04-27T19:41:25.799Z,55.63
2023-04-27T19:43:54.579Z,56.77
2023-04-27T19:46:23.360Z,56.97
2023-04-27T19:48:54.377Z,57.03
2023-04-27T19:51:23.213Z,57.92
2023-04-27T19:53:51.991Z,58.41
2023-04-27T19:56:20.686Z,58.99
2023-04-27T19:58:50.742Z,58.30
2023-04-27T20:01:20.950Z,58.72
2023-04-27T20:03:49.796Z,58.81
2023-04-27T20:06:20.016Z,59.39
2023-04-27T20:08:49.051Z,59.31
2023-04-27T20:11:17.752Z,58.34
2023-04-27T20:13:46.439Z,57.97
2023-04-27T20:16:17.440Z,58.09
2023-04-27T20:18:46.636Z,58.28
2023-04-27T20:21:16.586Z,58.59
2023-04-27T20:23:45.295Z,59.58
2023-04-27T20:26:13.973Z,59.81
2023-04-27T20:28:42.609Z,60.84
2023-04-27T20:31:11.321Z,59.79
2023-04-27T20:33:41.388Z,59.09
2023-04-27T20:36:17.161Z,60.15
2023-04-27T20:38:47.460Z,59.21
2023-04-27T20:41:16.309Z,58.95
2023-04-27T20:43:45.600Z,59.77
2023-04-27T20:46:14.572Z,59.51
2023-04-27T20:48:44.694Z,59.38
2023-04-27T20:51:13.611Z,60.66
2023-04-27T20:53:42.433Z,60.01
2023-04-27T20:56:12.001Z,60.97
2023-04-27T20:58:40.701Z,61.40
2023-04-27T21:01:09.453Z,61.47
2023-04-27T21:03:38.471Z,61.17
2023-04-27T21:06:08.928Z,62.24
2023-04-27T21:08:37.828Z,62.27
2023-04-27T21:11:07.238Z,62.29
2023-04-27T21:13:36.014Z,62.85
2023-04-27T21:16:05.069Z,62.61
2023-04-27T21:18:33.872Z,61.98
2023-04-27T21:21:02.729Z,62.21
2023-04-27T21:23:36.595Z,61.41
2023-04-27T21:26:05.489Z,60.88
2023-04-27T21:28:34.180Z,62.24
2023-04-27T21:31:03.361Z,62.81
2023-04-27T21:33:32.204Z,62.54
2023-04-27T21:36:01.036Z,62.46
2023-04-27T21:38:29.751Z,63.13
2023-04-27T21:41:00.194Z,63.31
2023-04-27T21:43:28.939Z,63.08
2023-04-27T21:45:57.592Z,63.36
2023-04-27T21:48:26.293Z,63.53
2023-04-27T21:50:54.994Z,63.37
2023-04-27T21:53:23.889Z,63.30
2023-04-27T21:55:52.635Z,62.91
2023-04-27T21:58:22.659Z,62.49
2023-04-27T22:00:51.741Z,63.62
2023-04-27T22:03:20.638Z,63.81
2023-04-27T22:05:50.368Z,63.81
2023-04-27T22:08:19.054Z,63.98
2023-04-27T22:10:47.760Z,64.41
2023-04-27T22:13:19.320Z,63.50
2023-04-27T22:15:50.155Z,64.39
2023-04-27T22:18:18.856Z,65.12
2023-04-27T22:20:47.512Z,64.85
2023-04-27T22:23:16.234Z,63.76
2023-04-27T22:25:45.527Z,63.72
2023-04-27T22:28:14.368Z,63.38
2023-04-27T22:30:43.426Z,62.70
2023-04-27T22:33:13.641Z,62.23
2023-04-27T22:35:42.385Z,63.39
2023-04-27T22:38:11.517Z,64.20
2023-04-27T22:40:40.405Z,63.99
2023-04-27T22:43:09.078Z,63.75
2023-04-27T22:45:39.049Z,64.19
2023-04-27T22:48:08.170Z,64.11
2023-04-27T22:50:38.329Z,65.02
2023-04-27T22:53:07.158Z,64.57
2023-04-27T22:55:35.896Z,63.84
2023-04-27T22:58:04.625Z,64.82
2023-04-27T23:00:33.516Z,64.96
2023-04-27T23:03:02.300Z,64.69
2023-04-27T23:05:31.319Z,65.22
2023-04-27T23:08:01.423Z,65.68
2023-04-27T23:10:31.235Z,64.42
2023-04-27T23:13:02.032Z,63.63
2023-04-27T23:15:30.707Z,65.06
2023-04-27T23:17:59.409Z,64.65
2023-04-27T23:20:29.216Z,63.91
2023-04-27T23:22:58.180Z,63.95
2023-04-27T23:25:28.298Z,65.06
2023-04-27T23:27:57.083Z,65.81
2023-04-27T23:30:25.783Z,65.53
2023-04-27T23:32:54.462Z,65.89
2023-04-27T23:35:23.541Z,65.71
2023-04-27T23:37:52.275Z,64.96
2023-04-27T23:40:21.207Z,65.64
2023-04-27T23:42:51.877Z,65.49
2023-04-27T23:45:21.043Z,66.42
2023-04-27T23:47:49.704Z,65.38
2023-04-27T23:50:18.592Z,64.57
2023-04-27T23:52:47.386Z,65.26
2023-04-27T23:55:16.160Z,65.54
2023-04-27T23:57:45.543Z,65.12
